Aérodrome :
LOGIN :

S'inscrire | Disclaimer

   EN    FR    IT 

 










Légende :    VFR   VFR Marginal   IFR   IFR Intensif   IFR Très Intensif
Visi : 
Plafond : 
>= 8 km
>= 3000ft
5 à 8 km
1000 à 3000 ft
1500m à 5 km
500 à 1000 ft
800 à 1500m
200 à 500 ft
< 800m
< 200 ft
Symboles :   Orages  Brouillard  Fortes neiges  Fortes précipitations  Vent > 20 kt
SIGMETs :   Divers  Orages  Givrage  Turbulence  Onde Orograph.  Cendres Volcan.






- Altitude de l'aérodrome : 39 ft
- Code IATA : SUF


LICA - Lamezia Terme

DERNIER METAR :
  • 170150Z AUTO 11005KT 9999 NCD 02/M05 Q1019

METARs EXPIRÉS :
  • 170120Z AUTO 11005KT 9999 NCD 03/M06 Q1019
  • 170050Z AUTO 10006KT 070V130 9999 NCD 02/M05 Q1019
  • 170020Z AUTO 01006KT 340V050 9999 NCD 04/M07 Q1019
  • 162350Z AUTO 06006KT 350V100 9999 NCD 03/M06 Q1019
  • 162320Z AUTO 36008KT 9999 NCD 04/M06 Q1019

TAF TAF LICA
Valide du 17 à 00h jusqu'au 18 à 00h UTC


162300Z 1700/1724 06005KT CAVOK
BECMG 1708/1710 27010KT
BECMG 1715/1717 08012KT RA BKN014



MET'MAP, la Météo Aéronautique d'un coup d'oeil ! - Copyright ORBIFLY Décembre 2007 - Disclaimer

ORBIFLY MET'MAP TEAM :

Programmation & Développement : Alexandra Zaïnal
Sur une idée originale de : Baudouin d'Aumeries
Assistance à la programmation : Marc-Olivier Méhu
Soutien technique & logistique : Manuel Goepfert

Contact : metmap@orbifly.com




SOURCES & CREDITS :

   NOAA